sensor_id;sensor_type;location;lat;lon;timestamp;P1;durP1;ratioP1;P2;durP2;ratioP2
67768;SDS011;54569;52.018;5.584;2023-05-15T00:00:42;16.20;;;10.75;;
67768;SDS011;54569;52.018;5.584;2023-05-15T00:03:08;15.65;;;11.43;;
67768;SDS011;54569;52.018;5.584;2023-05-15T00:05:35;12.27;;;11.02;;
67768;SDS011;54569;52.018;5.584;2023-05-15T00:08:00;13.73;;;11.50;;
67768;SDS011;54569;52.018;5.584;2023-05-15T00:10:26;11.73;;;10.57;;
67768;SDS011;54569;52.018;5.584;2023-05-15T00:12:52;12.73;;;10.68;;
67768;SDS011;54569;52.018;5.584;2023-05-15T00:15:17;14.07;;;11.23;;
67768;SDS011;54569;52.018;5.584;2023-05-15T00:17:43;16.00;;;11.38;;
67768;SDS011;54569;52.018;5.584;2023-05-15T00:20:09;12.90;;;11.25;;
67768;SDS011;54569;52.018;5.584;2023-05-15T00:22:36;13.18;;;11.05;;
67768;SDS011;54569;52.018;5.584;2023-05-15T00:25:02;14.18;;;11.82;;
67768;SDS011;54569;52.018;5.584;2023-05-15T00:27:28;16.42;;;11.75;;
67768;SDS011;54569;52.018;5.584;2023-05-15T00:29:54;14.02;;;11.70;;
67768;SDS011;54569;52.018;5.584;2023-05-15T00:32:19;12.73;;;11.35;;
67768;SDS011;54569;52.018;5.584;2023-05-15T00:34:45;16.25;;;12.40;;
67768;SDS011;54569;52.018;5.584;2023-05-15T00:37:11;14.65;;;12.38;;
67768;SDS011;54569;52.018;5.584;2023-05-15T00:39:37;18.95;;;13.18;;
67768;SDS011;54569;52.018;5.584;2023-05-15T00:42:02;14.00;;;11.82;;
67768;SDS011;54569;52.018;5.584;2023-05-15T00:44:30;14.60;;;12.80;;
67768;SDS011;54569;52.018;5.584;2023-05-15T00:46:57;15.88;;;12.07;;
67768;SDS011;54569;52.018;5.584;2023-05-15T00:49:25;13.02;;;11.68;;
67768;SDS011;54569;52.018;5.584;2023-05-15T00:51:53;15.90;;;12.23;;
67768;SDS011;54569;52.018;5.584;2023-05-15T00:54:23;14.90;;;12.45;;
67768;SDS011;54569;52.018;5.584;2023-05-15T00:56:49;14.20;;;12.75;;
67768;SDS011;54569;52.018;5.584;2023-05-15T00:59:16;15.10;;;12.38;;
67768;SDS011;54569;52.018;5.584;2023-05-15T01:01:43;14.95;;;11.80;;
67768;SDS011;54569;52.018;5.584;2023-05-15T01:04:10;15.43;;;12.10;;
67768;SDS011;54569;52.018;5.584;2023-05-15T01:06:36;14.02;;;11.50;;
67768;SDS011;54569;52.018;5.584;2023-05-15T01:09:02;13.75;;;11.63;;
67768;SDS011;54569;52.018;5.584;2023-05-15T01:11:28;17.42;;;12.45;;
67768;SDS011;54569;52.018;5.584;2023-05-15T01:14:01;13.88;;;12.27;;
67768;SDS011;54569;52.018;5.584;2023-05-15T01:16:29;16.98;;;12.63;;
67768;SDS011;54569;52.018;5.584;2023-05-15T01:18:55;13.80;;;12.25;;
67768;SDS011;54569;52.018;5.584;2023-05-15T01:27:18;14.82;;;12.75;;
67768;SDS011;54569;52.018;5.584;2023-05-15T01:32:42;18.73;;;13.63;;
67768;SDS011;54569;52.018;5.584;2023-05-15T01:37:56;17.98;;;13.65;;
67768;SDS011;54569;52.018;5.584;2023-05-15T01:40:46;16.08;;;13.68;;
67768;SDS011;54569;52.018;5.584;2023-05-15T01:43:17;17.95;;;13.93;;
67768;SDS011;54569;52.018;5.584;2023-05-15T01:45:48;16.73;;;13.02;;
67768;SDS011;54569;52.018;5.584;2023-05-15T01:48:13;15.27;;;13.38;;
67768;SDS011;54569;52.018;5.584;2023-05-15T01:50:41;18.52;;;14.43;;
67768;SDS011;54569;52.018;5.584;2023-05-15T01:53:09;20.25;;;14.25;;
67768;SDS011;54569;52.018;5.584;2023-05-15T01:55:36;16.35;;;13.38;;
67768;SDS011;54569;52.018;5.584;2023-05-15T01:58:03;19.67;;;15.65;;
67768;SDS011;54569;52.018;5.584;2023-05-15T02:00:30;20.25;;;14.68;;
67768;SDS011;54569;52.018;5.584;2023-05-15T02:02:57;15.63;;;13.23;;
67768;SDS011;54569;52.018;5.584;2023-05-15T02:05:23;19.75;;;14.63;;
67768;SDS011;54569;52.018;5.584;2023-05-15T02:07:50;18.70;;;14.52;;
67768;SDS011;54569;52.018;5.584;2023-05-15T02:10:16;18.05;;;14.60;;
67768;SDS011;54569;52.018;5.584;2023-05-15T02:12:46;20.05;;;14.68;;
67768;SDS011;54569;52.018;5.584;2023-05-15T02:15:13;17.17;;;14.13;;
67768;SDS011;54569;52.018;5.584;2023-05-15T02:17:45;19.50;;;14.15;;
67768;SDS011;54569;52.018;5.584;2023-05-15T02:20:10;22.35;;;15.68;;
67768;SDS011;54569;52.018;5.584;2023-05-15T02:22:36;22.85;;;15.25;;
67768;SDS011;54569;52.018;5.584;2023-05-15T02:25:02;20.00;;;15.45;;
67768;SDS011;54569;52.018;5.584;2023-05-15T02:27:32;19.63;;;14.13;;
67768;SDS011;54569;52.018;5.584;2023-05-15T02:35:35;25.75;;;17.92;;
67768;SDS011;54569;52.018;5.584;2023-05-15T02:38:04;27.98;;;18.65;;
67768;SDS011;54569;52.018;5.584;2023-05-15T02:40:33;25.23;;;17.48;;
67768;SDS011;54569;52.018;5.584;2023-05-15T02:43:04;27.23;;;18.95;;
67768;SDS011;54569;52.018;5.584;2023-05-15T02:45:31;27.50;;;19.33;;
67768;SDS011;54569;52.018;5.584;2023-05-15T02:47:58;31.98;;;20.30;;
67768;SDS011;54569;52.018;5.584;2023-05-15T02:50:25;41.55;;;21.23;;
67768;SDS011;54569;52.018;5.584;2023-05-15T02:52:59;35.95;;;20.58;;
67768;SDS011;54569;52.018;5.584;2023-05-15T02:55:29;35.53;;;22.15;;
67768;SDS011;54569;52.018;5.584;2023-05-15T02:57:55;33.00;;;21.38;;
67768;SDS011;54569;52.018;5.584;2023-05-15T03:00:22;32.33;;;20.70;;
67768;SDS011;54569;52.018;5.584;2023-05-15T03:02:47;33.08;;;20.45;;
67768;SDS011;54569;52.018;5.584;2023-05-15T03:05:13;28.25;;;19.88;;
67768;SDS011;54569;52.018;5.584;2023-05-15T03:07:38;29.67;;;18.98;;
67768;SDS011;54569;52.018;5.584;2023-05-15T03:10:05;30.40;;;20.77;;
67768;SDS011;54569;52.018;5.584;2023-05-15T03:12:32;27.67;;;18.75;;
67768;SDS011;54569;52.018;5.584;2023-05-15T03:14:57;35.15;;;20.58;;
67768;SDS011;54569;52.018;5.584;2023-05-15T03:17:23;27.77;;;17.80;;
67768;SDS011;54569;52.018;5.584;2023-05-15T03:19:49;24.90;;;18.45;;
67768;SDS011;54569;52.018;5.584;2023-05-15T03:22:14;27.02;;;17.88;;
67768;SDS011;54569;52.018;5.584;2023-05-15T03:24:40;27.60;;;19.02;;
67768;SDS011;54569;52.018;5.584;2023-05-15T03:27:06;30.63;;;18.50;;
67768;SDS011;54569;52.018;5.584;2023-05-15T03:29:31;27.98;;;18.85;;
67768;SDS011;54569;52.018;5.584;2023-05-15T03:31:57;28.42;;;18.92;;
67768;SDS011;54569;52.018;5.584;2023-05-15T03:34:23;34.58;;;21.05;;
67768;SDS011;54569;52.018;5.584;2023-05-15T03:36:48;24.65;;;17.73;;
67768;SDS011;54569;52.018;5.584;2023-05-15T03:39:14;30.58;;;20.23;;
67768;SDS011;54569;52.018;5.584;2023-05-15T03:41:40;32.40;;;19.60;;
67768;SDS011;54569;52.018;5.584;2023-05-15T03:44:05;29.40;;;19.75;;
67768;SDS011;54569;52.018;5.584;2023-05-15T03:46:31;28.42;;;19.80;;
67768;SDS011;54569;52.018;5.584;2023-05-15T03:48:57;29.30;;;20.33;;
67768;SDS011;54569;52.018;5.584;2023-05-15T03:51:22;29.80;;;20.40;;
67768;SDS011;54569;52.018;5.584;2023-05-15T03:53:52;26.73;;;20.00;;
67768;SDS011;54569;52.018;5.584;2023-05-15T03:56:21;27.77;;;18.95;;
67768;SDS011;54569;52.018;5.584;2023-05-15T03:58:47;23.17;;;16.77;;
67768;SDS011;54569;52.018;5.584;2023-05-15T04:01:12;26.85;;;17.75;;
67768;SDS011;54569;52.018;5.584;2023-05-15T04:03:38;22.67;;;17.00;;
67768;SDS011;54569;52.018;5.584;2023-05-15T04:06:04;25.02;;;17.10;;
67768;SDS011;54569;52.018;5.584;2023-05-15T04:08:29;24.25;;;19.23;;
67768;SDS011;54569;52.018;5.584;2023-05-15T04:10:55;24.45;;;17.60;;
67768;SDS011;54569;52.018;5.584;2023-05-15T04:13:21;28.85;;;18.90;;
67768;SDS011;54569;52.018;5.584;2023-05-15T04:15:46;26.65;;;19.10;;
67768;SDS011;54569;52.018;5.584;2023-05-15T04:18:12;28.60;;;18.95;;
67768;SDS011;54569;52.018;5.584;2023-05-15T04:20:38;30.00;;;18.75;;
67768;SDS011;54569;52.018;5.584;2023-05-15T04:23:04;25.83;;;17.70;;
67768;SDS011;54569;52.018;5.584;2023-05-15T04:25:29;28.15;;;19.80;;
67768;SDS011;54569;52.018;5.584;2023-05-15T04:27:56;29.23;;;21.08;;
67768;SDS011;54569;52.018;5.584;2023-05-15T04:30:22;29.27;;;19.75;;
67768;SDS011;54569;52.018;5.584;2023-05-15T04:32:48;28.35;;;21.23;;
67768;SDS011;54569;52.018;5.584;2023-05-15T04:35:15;33.33;;;20.35;;
67768;SDS011;54569;52.018;5.584;2023-05-15T04:37:42;28.02;;;20.38;;
67768;SDS011;54569;52.018;5.584;2023-05-15T04:40:09;26.98;;;19.58;;
67768;SDS011;54569;52.018;5.584;2023-05-15T04:42:36;29.95;;;20.45;;
67768;SDS011;54569;52.018;5.584;2023-05-15T04:45:03;35.90;;;21.30;;
67768;SDS011;54569;52.018;5.584;2023-05-15T04:47:29;35.10;;;22.13;;
67768;SDS011;54569;52.018;5.584;2023-05-15T04:49:55;31.58;;;21.73;;
67768;SDS011;54569;52.018;5.584;2023-05-15T04:52:20;31.88;;;20.42;;
67768;SDS011;54569;52.018;5.584;2023-05-15T04:54:46;31.35;;;20.73;;
67768;SDS011;54569;52.018;5.584;2023-05-15T04:57:13;31.65;;;20.33;;
67768;SDS011;54569;52.018;5.584;2023-05-15T04:59:39;29.50;;;20.17;;
67768;SDS011;54569;52.018;5.584;2023-05-15T05:02:04;26.05;;;19.38;;
67768;SDS011;54569;52.018;5.584;2023-05-15T05:04:30;30.77;;;20.05;;
67768;SDS011;54569;52.018;5.584;2023-05-15T05:06:56;25.88;;;19.60;;
67768;SDS011;54569;52.018;5.584;2023-05-15T05:09:21;25.98;;;18.75;;
67768;SDS011;54569;52.018;5.584;2023-05-15T05:11:47;29.38;;;18.45;;
67768;SDS011;54569;52.018;5.584;2023-05-15T05:14:13;25.95;;;18.50;;
67768;SDS011;54569;52.018;5.584;2023-05-15T05:16:39;26.85;;;18.67;;
67768;SDS011;54569;52.018;5.584;2023-05-15T05:19:06;26.20;;;20.00;;
67768;SDS011;54569;52.018;5.584;2023-05-15T05:21:31;24.75;;;18.63;;
67768;SDS011;54569;52.018;5.584;2023-05-15T05:23:58;27.77;;;19.27;;
67768;SDS011;54569;52.018;5.584;2023-05-15T05:26:23;21.85;;;16.70;;
67768;SDS011;54569;52.018;5.584;2023-05-15T05:28:50;26.00;;;19.10;;
67768;SDS011;54569;52.018;5.584;2023-05-15T05:31:16;28.92;;;19.40;;
67768;SDS011;54569;52.018;5.584;2023-05-15T05:33:42;28.40;;;20.85;;
67768;SDS011;54569;52.018;5.584;2023-05-15T05:36:07;32.10;;;21.63;;
67768;SDS011;54569;52.018;5.584;2023-05-15T05:38:34;37.15;;;23.20;;
67768;SDS011;54569;52.018;5.584;2023-05-15T05:41:00;36.00;;;22.70;;
67768;SDS011;54569;52.018;5.584;2023-05-15T05:43:27;32.38;;;21.90;;
67768;SDS011;54569;52.018;5.584;2023-05-15T05:45:53;33.50;;;22.85;;
67768;SDS011;54569;52.018;5.584;2023-05-15T05:48:18;34.25;;;21.58;;
67768;SDS011;54569;52.018;5.584;2023-05-15T05:50:44;33.65;;;20.98;;
67768;SDS011;54569;52.018;5.584;2023-05-15T05:53:10;34.67;;;22.80;;
67768;SDS011;54569;52.018;5.584;2023-05-15T05:55:35;35.80;;;22.42;;
67768;SDS011;54569;52.018;5.584;2023-05-15T05:58:01;35.20;;;23.48;;
67768;SDS011;54569;52.018;5.584;2023-05-15T06:00:27;33.35;;;22.17;;
67768;SDS011;54569;52.018;5.584;2023-05-15T06:02:56;31.40;;;21.65;;
67768;SDS011;54569;52.018;5.584;2023-05-15T06:05:23;27.30;;;19.02;;
67768;SDS011;54569;52.018;5.584;2023-05-15T06:07:50;25.08;;;17.90;;
67768;SDS011;54569;52.018;5.584;2023-05-15T06:10:17;22.08;;;18.27;;
67768;SDS011;54569;52.018;5.584;2023-05-15T06:12:43;23.13;;;18.58;;
67768;SDS011;54569;52.018;5.584;2023-05-15T06:15:09;23.67;;;18.23;;
67768;SDS011;54569;52.018;5.584;2023-05-15T06:17:36;27.92;;;20.48;;
67768;SDS011;54569;52.018;5.584;2023-05-15T06:20:02;25.60;;;19.63;;
67768;SDS011;54569;52.018;5.584;2023-05-15T06:22:31;22.55;;;19.10;;
67768;SDS011;54569;52.018;5.584;2023-05-15T06:24:57;30.38;;;21.55;;
67768;SDS011;54569;52.018;5.584;2023-05-15T06:27:24;29.15;;;21.55;;
67768;SDS011;54569;52.018;5.584;2023-05-15T06:29:50;30.80;;;22.50;;
67768;SDS011;54569;52.018;5.584;2023-05-15T06:32:16;31.00;;;21.60;;
67768;SDS011;54569;52.018;5.584;2023-05-15T06:34:42;27.20;;;20.30;;
67768;SDS011;54569;52.018;5.584;2023-05-15T06:37:07;26.05;;;20.92;;
67768;SDS011;54569;52.018;5.584;2023-05-15T06:39:33;31.85;;;20.90;;
67768;SDS011;54569;52.018;5.584;2023-05-15T06:41:59;30.98;;;21.65;;
67768;SDS011;54569;52.018;5.584;2023-05-15T06:44:26;29.48;;;22.85;;
67768;SDS011;54569;52.018;5.584;2023-05-15T06:46:52;26.05;;;20.08;;
67768;SDS011;54569;52.018;5.584;2023-05-15T06:49:19;26.45;;;19.15;;
67768;SDS011;54569;52.018;5.584;2023-05-15T06:51:44;24.08;;;20.13;;
67768;SDS011;54569;52.018;5.584;2023-05-15T06:54:10;19.92;;;17.52;;
67768;SDS011;54569;52.018;5.584;2023-05-15T06:56:36;22.25;;;18.70;;
67768;SDS011;54569;52.018;5.584;2023-05-15T06:59:02;21.60;;;17.02;;
67768;SDS011;54569;52.018;5.584;2023-05-15T07:01:29;23.38;;;18.55;;
67768;SDS011;54569;52.018;5.584;2023-05-15T07:03:55;21.50;;;17.17;;
67768;SDS011;54569;52.018;5.584;2023-05-15T07:06:20;21.33;;;16.65;;
67768;SDS011;54569;52.018;5.584;2023-05-15T07:08:47;24.48;;;18.08;;
67768;SDS011;54569;52.018;5.584;2023-05-15T07:11:13;23.20;;;17.55;;
67768;SDS011;54569;52.018;5.584;2023-05-15T07:13:39;22.15;;;19.33;;
67768;SDS011;54569;52.018;5.584;2023-05-15T07:16:05;23.15;;;18.35;;
67768;SDS011;54569;52.018;5.584;2023-05-15T07:18:31;23.80;;;17.55;;
67768;SDS011;54569;52.018;5.584;2023-05-15T07:20:56;20.17;;;18.08;;
67768;SDS011;54569;52.018;5.584;2023-05-15T07:23:22;19.92;;;16.65;;
67768;SDS011;54569;52.018;5.584;2023-05-15T07:25:48;18.52;;;16.13;;
67768;SDS011;54569;52.018;5.584;2023-05-15T07:28:13;16.90;;;15.18;;
67768;SDS011;54569;52.018;5.584;2023-05-15T07:30:39;17.95;;;16.05;;
67768;SDS011;54569;52.018;5.584;2023-05-15T07:33:05;19.77;;;17.52;;
67768;SDS011;54569;52.018;5.584;2023-05-15T07:35:31;20.00;;;17.65;;
67768;SDS011;54569;52.018;5.584;2023-05-15T07:37:57;19.58;;;17.58;;
67768;SDS011;54569;52.018;5.584;2023-05-15T07:40:22;18.00;;;16.00;;
67768;SDS011;54569;52.018;5.584;2023-05-15T07:42:48;15.75;;;14.13;;
67768;SDS011;54569;52.018;5.584;2023-05-15T07:45:14;17.35;;;15.15;;
67768;SDS011;54569;52.018;5.584;2023-05-15T07:47:47;15.25;;;13.45;;
67768;SDS011;54569;52.018;5.584;2023-05-15T07:50:13;17.00;;;15.00;;
67768;SDS011;54569;52.018;5.584;2023-05-15T07:52:39;16.63;;;14.77;;
67768;SDS011;54569;52.018;5.584;2023-05-15T07:55:06;17.30;;;15.55;;
67768;SDS011;54569;52.018;5.584;2023-05-15T07:57:32;18.25;;;16.38;;
67768;SDS011;54569;52.018;5.584;2023-05-15T07:59:58;17.13;;;15.38;;
67768;SDS011;54569;52.018;5.584;2023-05-15T08:02:24;16.38;;;14.77;;
67768;SDS011;54569;52.018;5.584;2023-05-15T08:04:49;18.73;;;16.63;;
67768;SDS011;54569;52.018;5.584;2023-05-15T08:07:15;19.63;;;17.67;;
67768;SDS011;54569;52.018;5.584;2023-05-15T08:09:40;20.65;;;17.63;;
67768;SDS011;54569;52.018;5.584;2023-05-15T08:12:16;20.95;;;18.88;;
67768;SDS011;54569;52.018;5.584;2023-05-15T08:14:48;22.83;;;19.38;;
67768;SDS011;54569;52.018;5.584;2023-05-15T08:17:14;20.65;;;18.45;;
67768;SDS011;54569;52.018;5.584;2023-05-15T08:19:40;25.35;;;19.13;;
67768;SDS011;54569;52.018;5.584;2023-05-15T08:22:06;22.20;;;18.33;;
67768;SDS011;54569;52.018;5.584;2023-05-15T08:24:32;21.45;;;19.23;;
67768;SDS011;54569;52.018;5.584;2023-05-15T08:26:57;21.35;;;18.65;;
67768;SDS011;54569;52.018;5.584;2023-05-15T08:29:23;22.98;;;18.63;;
67768;SDS011;54569;52.018;5.584;2023-05-15T08:31:49;19.08;;;16.50;;
67768;SDS011;54569;52.018;5.584;2023-05-15T08:34:14;21.52;;;18.55;;
67768;SDS011;54569;52.018;5.584;2023-05-15T08:36:40;23.35;;;18.38;;
67768;SDS011;54569;52.018;5.584;2023-05-15T08:39:06;20.20;;;18.00;;
67768;SDS011;54569;52.018;5.584;2023-05-15T08:41:37;21.13;;;18.95;;
67768;SDS011;54569;52.018;5.584;2023-05-15T08:44:08;21.55;;;19.35;;
67768;SDS011;54569;52.018;5.584;2023-05-15T08:46:35;19.98;;;17.88;;
67768;SDS011;54569;52.018;5.584;2023-05-15T08:49:01;20.25;;;18.15;;
67768;SDS011;54569;52.018;5.584;2023-05-15T08:51:32;19.55;;;17.23;;
67768;SDS011;54569;52.018;5.584;2023-05-15T08:53:58;20.13;;;17.85;;
67768;SDS011;54569;52.018;5.584;2023-05-15T08:56:24;18.33;;;16.30;;
67768;SDS011;54569;52.018;5.584;2023-05-15T08:58:49;21.83;;;18.83;;
67768;SDS011;54569;52.018;5.584;2023-05-15T09:01:16;20.23;;;17.83;;
67768;SDS011;54569;52.018;5.584;2023-05-15T09:03:41;18.95;;;16.92;;
67768;SDS011;54569;52.018;5.584;2023-05-15T09:06:07;19.98;;;16.50;;
67768;SDS011;54569;52.018;5.584;2023-05-15T09:08:34;20.60;;;17.65;;
67768;SDS011;54569;52.018;5.584;2023-05-15T09:11:01;19.20;;;16.30;;
67768;SDS011;54569;52.018;5.584;2023-05-15T09:13:28;17.30;;;15.18;;
67768;SDS011;54569;52.018;5.584;2023-05-15T09:15:55;16.52;;;14.90;;
67768;SDS011;54569;52.018;5.584;2023-05-15T09:18:21;16.67;;;14.95;;
67768;SDS011;54569;52.018;5.584;2023-05-15T09:20:46;17.50;;;15.60;;
67768;SDS011;54569;52.018;5.584;2023-05-15T09:23:25;17.83;;;16.00;;
67768;SDS011;54569;52.018;5.584;2023-05-15T09:25:52;16.90;;;15.20;;
67768;SDS011;54569;52.018;5.584;2023-05-15T09:28:25;17.92;;;16.08;;
67768;SDS011;54569;52.018;5.584;2023-05-15T09:30:56;16.30;;;14.60;;
67768;SDS011;54569;52.018;5.584;2023-05-15T09:33:26;17.65;;;15.07;;
67768;SDS011;54569;52.018;5.584;2023-05-15T09:35:54;16.65;;;14.88;;
67768;SDS011;54569;52.018;5.584;2023-05-15T09:38:19;18.00;;;16.15;;
67768;SDS011;54569;52.018;5.584;2023-05-15T09:40:45;17.30;;;15.25;;
67768;SDS011;54569;52.018;5.584;2023-05-15T09:43:11;18.48;;;16.58;;
67768;SDS011;54569;52.018;5.584;2023-05-15T09:45:37;19.17;;;16.80;;
67768;SDS011;54569;52.018;5.584;2023-05-15T09:48:03;18.15;;;16.35;;
67768;SDS011;54569;52.018;5.584;2023-05-15T09:50:34;17.77;;;16.08;;
67768;SDS011;54569;52.018;5.584;2023-05-15T09:53:01;20.13;;;15.30;;
67768;SDS011;54569;52.018;5.584;2023-05-15T09:55:27;18.45;;;15.93;;
67768;SDS011;54569;52.018;5.584;2023-05-15T09:58:03;17.63;;;15.68;;
67768;SDS011;54569;52.018;5.584;2023-05-15T10:00:39;18.63;;;16.55;;
67768;SDS011;54569;52.018;5.584;2023-05-15T10:03:07;18.23;;;16.33;;
67768;SDS011;54569;52.018;5.584;2023-05-15T10:05:33;18.13;;;15.93;;
67768;SDS011;54569;52.018;5.584;2023-05-15T10:07:59;18.13;;;16.17;;
67768;SDS011;54569;52.018;5.584;2023-05-15T10:10:27;18.15;;;16.25;;
67768;SDS011;54569;52.018;5.584;2023-05-15T10:12:56;18.95;;;15.57;;
67768;SDS011;54569;52.018;5.584;2023-05-15T10:15:24;19.48;;;16.95;;
67768;SDS011;54569;52.018;5.584;2023-05-15T10:17:50;18.73;;;16.73;;
67768;SDS011;54569;52.018;5.584;2023-05-15T10:20:17;16.48;;;14.63;;
67768;SDS011;54569;52.018;5.584;2023-05-15T10:22:46;17.30;;;15.60;;
67768;SDS011;54569;52.018;5.584;2023-05-15T10:28:07;17.98;;;16.17;;
67768;SDS011;54569;52.018;5.584;2023-05-15T10:30:34;18.33;;;16.48;;
67768;SDS011;54569;52.018;5.584;2023-05-15T10:33:00;18.92;;;16.92;;
67768;SDS011;54569;52.018;5.584;2023-05-15T10:35:28;18.60;;;16.42;;
67768;SDS011;54569;52.018;5.584;2023-05-15T10:37:54;18.10;;;16.30;;
67768;SDS011;54569;52.018;5.584;2023-05-15T10:40:22;20.38;;;18.20;;
67768;SDS011;54569;52.018;5.584;2023-05-15T10:42:48;22.15;;;18.60;;
67768;SDS011;54569;52.018;5.584;2023-05-15T10:45:14;24.08;;;18.63;;
67768;SDS011;54569;52.018;5.584;2023-05-15T10:47:40;18.77;;;16.77;;
67768;SDS011;54569;52.018;5.584;2023-05-15T10:50:07;20.08;;;18.13;;
67768;SDS011;54569;52.018;5.584;2023-05-15T10:52:34;21.27;;;19.05;;
67768;SDS011;54569;52.018;5.584;2023-05-15T10:55:01;23.98;;;21.35;;
67768;SDS011;54569;52.018;5.584;2023-05-15T10:57:30;27.13;;;23.85;;
67768;SDS011;54569;52.018;5.584;2023-05-15T10:59:56;27.67;;;23.30;;
67768;SDS011;54569;52.018;5.584;2023-05-15T11:02:23;27.77;;;23.67;;
67768;SDS011;54569;52.018;5.584;2023-05-15T11:05:00;28.35;;;25.00;;
67768;SDS011;54569;52.018;5.584;2023-05-15T11:07:27;31.35;;;25.30;;
67768;SDS011;54569;52.018;5.584;2023-05-15T11:09:56;32.47;;;27.02;;
67768;SDS011;54569;52.018;5.584;2023-05-15T11:12:22;36.00;;;28.20;;
67768;SDS011;54569;52.018;5.584;2023-05-15T11:17:21;34.67;;;28.70;;
67768;SDS011;54569;52.018;5.584;2023-05-15T11:27:30;32.35;;;27.50;;
67768;SDS011;54569;52.018;5.584;2023-05-15T11:32:53;32.85;;;26.98;;
67768;SDS011;54569;52.018;5.584;2023-05-15T11:35:29;32.70;;;26.08;;
67768;SDS011;54569;52.018;5.584;2023-05-15T11:40:53;32.50;;;24.77;;
67768;SDS011;54569;52.018;5.584;2023-05-15T11:43:36;30.42;;;25.02;;
67768;SDS011;54569;52.018;5.584;2023-05-15T11:48:31;30.65;;;25.02;;
67768;SDS011;54569;52.018;5.584;2023-05-15T11:50:57;26.98;;;22.05;;
67768;SDS011;54569;52.018;5.584;2023-05-15T11:53:24;25.38;;;22.50;;
67768;SDS011;54569;52.018;5.584;2023-05-15T11:55:51;27.20;;;21.35;;
67768;SDS011;54569;52.018;5.584;2023-05-15T11:58:19;26.40;;;21.70;;
67768;SDS011;54569;52.018;5.584;2023-05-15T12:00:46;26.75;;;21.48;;
67768;SDS011;54569;52.018;5.584;2023-05-15T12:03:17;28.92;;;20.42;;
67768;SDS011;54569;52.018;5.584;2023-05-15T12:05:48;27.00;;;19.27;;
67768;SDS011;54569;52.018;5.584;2023-05-15T12:08:15;20.08;;;17.40;;
67768;SDS011;54569;52.018;5.584;2023-05-15T12:10:41;23.23;;;17.05;;
67768;SDS011;54569;52.018;5.584;2023-05-15T12:13:08;24.80;;;18.00;;
67768;SDS011;54569;52.018;5.584;2023-05-15T12:15:38;19.70;;;17.60;;
67768;SDS011;54569;52.018;5.584;2023-05-15T12:18:06;20.33;;;17.67;;
67768;SDS011;54569;52.018;5.584;2023-05-15T12:20:33;19.88;;;17.08;;
67768;SDS011;54569;52.018;5.584;2023-05-15T12:23:03;21.27;;;17.65;;
67768;SDS011;54569;52.018;5.584;2023-05-15T12:25:34;20.95;;;16.85;;
67768;SDS011;54569;52.018;5.584;2023-05-15T12:28:01;20.02;;;17.17;;
67768;SDS011;54569;52.018;5.584;2023-05-15T12:30:32;21.80;;;17.38;;
67768;SDS011;54569;52.018;5.584;2023-05-15T12:32:59;23.83;;;17.55;;
67768;SDS011;54569;52.018;5.584;2023-05-15T12:35:27;21.73;;;18.70;;
67768;SDS011;54569;52.018;5.584;2023-05-15T12:37:53;22.63;;;18.10;;
67768;SDS011;54569;52.018;5.584;2023-05-15T12:40:20;22.25;;;18.13;;
67768;SDS011;54569;52.018;5.584;2023-05-15T12:42:50;21.50;;;19.05;;
67768;SDS011;54569;52.018;5.584;2023-05-15T12:45:18;22.33;;;19.40;;
67768;SDS011;54569;52.018;5.584;2023-05-15T12:47:46;23.05;;;18.55;;
67768;SDS011;54569;52.018;5.584;2023-05-15T12:50:21;21.05;;;18.35;;
67768;SDS011;54569;52.018;5.584;2023-05-15T12:55:24;21.95;;;18.83;;
67768;SDS011;54569;52.018;5.584;2023-05-15T12:57:56;20.25;;;17.73;;
67768;SDS011;54569;52.018;5.584;2023-05-15T13:00:23;25.10;;;17.55;;
67768;SDS011;54569;52.018;5.584;2023-05-15T13:02:51;17.80;;;15.90;;
67768;SDS011;54569;52.018;5.584;2023-05-15T13:05:18;16.83;;;15.07;;
67768;SDS011;54569;52.018;5.584;2023-05-15T13:07:43;18.38;;;16.48;;
67768;SDS011;54569;52.018;5.584;2023-05-15T13:10:10;21.15;;;16.15;;
67768;SDS011;54569;52.018;5.584;2023-05-15T13:12:44;18.85;;;15.38;;
67768;SDS011;54569;52.018;5.584;2023-05-15T13:20:34;21.40;;;16.90;;
67768;SDS011;54569;52.018;5.584;2023-05-15T13:23:04;18.95;;;16.95;;
67768;SDS011;54569;52.018;5.584;2023-05-15T13:25:31;17.40;;;14.82;;
67768;SDS011;54569;52.018;5.584;2023-05-15T13:27:57;15.85;;;14.30;;
67768;SDS011;54569;52.018;5.584;2023-05-15T13:30:24;17.65;;;15.90;;
67768;SDS011;54569;52.018;5.584;2023-05-15T13:32:50;19.08;;;15.73;;
67768;SDS011;54569;52.018;5.584;2023-05-15T13:35:16;21.30;;;16.38;;
67768;SDS011;54569;52.018;5.584;2023-05-15T13:37:42;18.42;;;15.20;;
67768;SDS011;54569;52.018;5.584;2023-05-15T13:40:08;14.75;;;11.75;;
67768;SDS011;54569;52.018;5.584;2023-05-15T13:42:35;12.02;;;10.20;;
67768;SDS011;54569;52.018;5.584;2023-05-15T13:45:05;12.75;;;9.10;;
67768;SDS011;54569;52.018;5.584;2023-05-15T13:47:36;11.73;;;9.05;;
67768;SDS011;54569;52.018;5.584;2023-05-15T13:50:03;10.30;;;9.23;;
67768;SDS011;54569;52.018;5.584;2023-05-15T13:52:33;9.40;;;8.57;;
67768;SDS011;54569;52.018;5.584;2023-05-15T13:54:59;11.27;;;8.80;;
67768;SDS011;54569;52.018;5.584;2023-05-15T13:57:25;10.15;;;9.23;;
67768;SDS011;54569;52.018;5.584;2023-05-15T13:59:51;11.75;;;10.02;;
67768;SDS011;54569;52.018;5.584;2023-05-15T14:02:16;10.45;;;9.45;;
67768;SDS011;54569;52.018;5.584;2023-05-15T14:04:42;10.55;;;8.82;;
67768;SDS011;54569;52.018;5.584;2023-05-15T14:07:10;9.02;;;8.13;;
67768;SDS011;54569;52.018;5.584;2023-05-15T14:09:36;13.75;;;8.27;;
67768;SDS011;54569;52.018;5.584;2023-05-15T14:12:01;8.57;;;6.55;;
67768;SDS011;54569;52.018;5.584;2023-05-15T14:14:27;10.68;;;7.18;;
67768;SDS011;54569;52.018;5.584;2023-05-15T14:16:52;15.90;;;9.07;;
67768;SDS011;54569;52.018;5.584;2023-05-15T14:19:18;22.25;;;12.18;;
67768;SDS011;54569;52.018;5.584;2023-05-15T14:21:44;15.85;;;11.43;;
67768;SDS011;54569;52.018;5.584;2023-05-15T14:24:09;14.52;;;11.70;;
67768;SDS011;54569;52.018;5.584;2023-05-15T14:26:35;14.02;;;11.65;;
67768;SDS011;54569;52.018;5.584;2023-05-15T14:29:01;17.42;;;11.50;;
67768;SDS011;54569;52.018;5.584;2023-05-15T14:31:26;13.30;;;11.40;;
67768;SDS011;54569;52.018;5.584;2023-05-15T14:33:52;16.85;;;12.30;;
67768;SDS011;54569;52.018;5.584;2023-05-15T14:36:18;15.32;;;11.43;;
67768;SDS011;54569;52.018;5.584;2023-05-15T14:38:43;14.27;;;10.80;;
67768;SDS011;54569;52.018;5.584;2023-05-15T14:41:11;12.32;;;11.13;;
67768;SDS011;54569;52.018;5.584;2023-05-15T14:43:37;13.65;;;11.13;;
67768;SDS011;54569;52.018;5.584;2023-05-15T14:46:03;13.88;;;11.23;;
67768;SDS011;54569;52.018;5.584;2023-05-15T14:48:29;11.70;;;10.07;;
67768;SDS011;54569;52.018;5.584;2023-05-15T14:50:55;10.65;;;9.55;;
67768;SDS011;54569;52.018;5.584;2023-05-15T14:53:22;19.38;;;11.27;;
67768;SDS011;54569;52.018;5.584;2023-05-15T14:55:48;12.07;;;10.40;;
67768;SDS011;54569;52.018;5.584;2023-05-15T14:58:14;9.93;;;8.70;;
67768;SDS011;54569;52.018;5.584;2023-05-15T15:00:39;10.52;;;8.23;;
67768;SDS011;54569;52.018;5.584;2023-05-15T15:03:05;11.10;;;8.20;;
67768;SDS011;54569;52.018;5.584;2023-05-15T15:05:31;12.52;;;8.73;;
67768;SDS011;54569;52.018;5.584;2023-05-15T15:10:27;12.10;;;8.23;;